sensor_id;sensor_type;location;lat;lon;timestamp;P1;durP1;ratioP1;P2;durP2;ratioP2
70026;SDS011;57506;50.092;15.804;2022-09-24T00:00:57;21.15;;;11.50;;
70026;SDS011;57506;50.092;15.804;2022-09-24T00:03:23;20.53;;;11.37;;
70026;SDS011;57506;50.092;15.804;2022-09-24T00:05:50;21.90;;;11.23;;
70026;SDS011;57506;50.092;15.804;2022-09-24T00:08:17;19.52;;;12.20;;
70026;SDS011;57506;50.092;15.804;2022-09-24T00:10:44;17.17;;;10.45;;
70026;SDS011;57506;50.092;15.804;2022-09-24T00:13:12;21.67;;;12.27;;
70026;SDS011;57506;50.092;15.804;2022-09-24T00:15:40;16.70;;;10.83;;
70026;SDS011;57506;50.092;15.804;2022-09-24T00:18:08;15.20;;;10.27;;
70026;SDS011;57506;50.092;15.804;2022-09-24T00:20:36;92.68;;;13.15;;
70026;SDS011;57506;50.092;15.804;2022-09-24T00:23:02;18.63;;;10.25;;
70026;SDS011;57506;50.092;15.804;2022-09-24T00:25:29;16.67;;;9.85;;
70026;SDS011;57506;50.092;15.804;2022-09-24T00:28:13;13.97;;;8.70;;
70026;SDS011;57506;50.092;15.804;2022-09-24T00:30:40;13.90;;;8.70;;
70026;SDS011;57506;50.092;15.804;2022-09-24T00:33:06;13.55;;;8.23;;
70026;SDS011;57506;50.092;15.804;2022-09-24T00:35:33;15.10;;;8.85;;
70026;SDS011;57506;50.092;15.804;2022-09-24T00:38:00;23.98;;;10.27;;
70026;SDS011;57506;50.092;15.804;2022-09-24T00:40:29;25.53;;;10.80;;
70026;SDS011;57506;50.092;15.804;2022-09-24T00:42:56;15.18;;;8.73;;
70026;SDS011;57506;50.092;15.804;2022-09-24T00:45:22;14.83;;;8.33;;
70026;SDS011;57506;50.092;15.804;2022-09-24T00:47:48;27.88;;;10.80;;
70026;SDS011;57506;50.092;15.804;2022-09-24T00:50:20;41.75;;;11.35;;
70026;SDS011;57506;50.092;15.804;2022-09-24T00:55:15;16.10;;;9.80;;
70026;SDS011;57506;50.092;15.804;2022-09-24T00:57:44;13.30;;;8.80;;
70026;SDS011;57506;50.092;15.804;2022-09-24T01:00:11;13.70;;;8.50;;
70026;SDS011;57506;50.092;15.804;2022-09-24T01:02:38;18.08;;;10.52;;
70026;SDS011;57506;50.092;15.804;2022-09-24T01:05:08;16.73;;;9.93;;
70026;SDS011;57506;50.092;15.804;2022-09-24T01:07:34;20.57;;;12.13;;
70026;SDS011;57506;50.092;15.804;2022-09-24T01:10:00;17.20;;;10.43;;
70026;SDS011;57506;50.092;15.804;2022-09-24T01:15:16;21.38;;;11.55;;
70026;SDS011;57506;50.092;15.804;2022-09-24T01:26:46;20.40;;;12.00;;
70026;SDS011;57506;50.092;15.804;2022-09-24T01:32:06;25.50;;;14.48;;
70026;SDS011;57506;50.092;15.804;2022-09-24T01:35:00;19.90;;;11.60;;
70026;SDS011;57506;50.092;15.804;2022-09-24T01:37:29;27.95;;;13.85;;
70026;SDS011;57506;50.092;15.804;2022-09-24T01:39:58;22.02;;;13.57;;
70026;SDS011;57506;50.092;15.804;2022-09-24T01:42:26;20.60;;;12.13;;
70026;SDS011;57506;50.092;15.804;2022-09-24T01:44:54;24.27;;;13.63;;
70026;SDS011;57506;50.092;15.804;2022-09-24T01:47:24;23.03;;;12.60;;
70026;SDS011;57506;50.092;15.804;2022-09-24T01:49:55;20.75;;;12.70;;
70026;SDS011;57506;50.092;15.804;2022-09-24T01:52:23;23.37;;;13.47;;
70026;SDS011;57506;50.092;15.804;2022-09-24T01:54:53;25.63;;;14.77;;
70026;SDS011;57506;50.092;15.804;2022-09-24T01:57:21;25.92;;;14.35;;
70026;SDS011;57506;50.092;15.804;2022-09-24T02:05:07;20.43;;;12.00;;
70026;SDS011;57506;50.092;15.804;2022-09-24T02:07:47;20.70;;;12.45;;
70026;SDS011;57506;50.092;15.804;2022-09-24T02:10:23;18.67;;;11.43;;
70026;SDS011;57506;50.092;15.804;2022-09-24T02:12:49;18.00;;;10.27;;
70026;SDS011;57506;50.092;15.804;2022-09-24T02:15:29;17.35;;;10.70;;
70026;SDS011;57506;50.092;15.804;2022-09-24T02:17:58;18.58;;;10.05;;
70026;SDS011;57506;50.092;15.804;2022-09-24T02:20:31;19.58;;;10.50;;
70026;SDS011;57506;50.092;15.804;2022-09-24T02:23:00;19.35;;;11.07;;
70026;SDS011;57506;50.092;15.804;2022-09-24T02:25:29;18.97;;;10.10;;
70026;SDS011;57506;50.092;15.804;2022-09-24T02:28:01;17.02;;;9.57;;
70026;SDS011;57506;50.092;15.804;2022-09-24T02:30:27;16.27;;;9.35;;
70026;SDS011;57506;50.092;15.804;2022-09-24T02:32:58;14.20;;;8.88;;
70026;SDS011;57506;50.092;15.804;2022-09-24T02:35:24;15.32;;;9.20;;
70026;SDS011;57506;50.092;15.804;2022-09-24T02:37:49;15.23;;;8.57;;
70026;SDS011;57506;50.092;15.804;2022-09-24T02:40:15;16.17;;;8.80;;
70026;SDS011;57506;50.092;15.804;2022-09-24T02:42:41;16.63;;;10.02;;
70026;SDS011;57506;50.092;15.804;2022-09-24T02:45:08;20.17;;;10.40;;
70026;SDS011;57506;50.092;15.804;2022-09-24T02:47:34;18.27;;;10.15;;
70026;SDS011;57506;50.092;15.804;2022-09-24T02:50:00;17.80;;;10.75;;
70026;SDS011;57506;50.092;15.804;2022-09-24T02:52:26;18.10;;;10.40;;
70026;SDS011;57506;50.092;15.804;2022-09-24T02:54:52;15.60;;;10.10;;
70026;SDS011;57506;50.092;15.804;2022-09-24T02:57:17;17.00;;;11.20;;
70026;SDS011;57506;50.092;15.804;2022-09-24T02:59:44;18.33;;;11.40;;
70026;SDS011;57506;50.092;15.804;2022-09-24T03:02:10;18.40;;;10.73;;
70026;SDS011;57506;50.092;15.804;2022-09-24T03:04:36;14.50;;;9.20;;
70026;SDS011;57506;50.092;15.804;2022-09-24T03:07:01;20.60;;;10.32;;
70026;SDS011;57506;50.092;15.804;2022-09-24T03:09:27;15.63;;;9.63;;
70026;SDS011;57506;50.092;15.804;2022-09-24T03:11:54;15.88;;;9.52;;
70026;SDS011;57506;50.092;15.804;2022-09-24T03:14:20;15.60;;;10.05;;
70026;SDS011;57506;50.092;15.804;2022-09-24T03:16:46;17.90;;;9.90;;
70026;SDS011;57506;50.092;15.804;2022-09-24T03:19:11;19.13;;;10.57;;
70026;SDS011;57506;50.092;15.804;2022-09-24T03:21:37;18.40;;;10.97;;
70026;SDS011;57506;50.092;15.804;2022-09-24T03:24:02;18.97;;;11.37;;
70026;SDS011;57506;50.092;15.804;2022-09-24T03:26:28;21.10;;;11.93;;
70026;SDS011;57506;50.092;15.804;2022-09-24T03:28:54;20.47;;;12.30;;
70026;SDS011;57506;50.092;15.804;2022-09-24T03:31:19;19.52;;;11.18;;
70026;SDS011;57506;50.092;15.804;2022-09-24T03:33:48;16.50;;;9.67;;
70026;SDS011;57506;50.092;15.804;2022-09-24T03:36:15;15.40;;;8.93;;
70026;SDS011;57506;50.092;15.804;2022-09-24T03:38:49;13.93;;;9.40;;
70026;SDS011;57506;50.092;15.804;2022-09-24T03:41:16;16.38;;;10.43;;
70026;SDS011;57506;50.092;15.804;2022-09-24T03:43:42;17.65;;;10.93;;
70026;SDS011;57506;50.092;15.804;2022-09-24T03:46:08;14.60;;;8.77;;
70026;SDS011;57506;50.092;15.804;2022-09-24T03:48:36;15.15;;;9.57;;
70026;SDS011;57506;50.092;15.804;2022-09-24T03:51:03;13.07;;;7.60;;
70026;SDS011;57506;50.092;15.804;2022-09-24T03:53:30;12.35;;;7.90;;
70026;SDS011;57506;50.092;15.804;2022-09-24T03:55:56;13.40;;;8.35;;
70026;SDS011;57506;50.092;15.804;2022-09-24T03:58:23;16.73;;;9.13;;
70026;SDS011;57506;50.092;15.804;2022-09-24T04:00:52;16.50;;;8.98;;
70026;SDS011;57506;50.092;15.804;2022-09-24T04:03:18;16.57;;;9.33;;
70026;SDS011;57506;50.092;15.804;2022-09-24T04:05:45;16.25;;;8.55;;
70026;SDS011;57506;50.092;15.804;2022-09-24T04:08:11;12.02;;;7.60;;
70026;SDS011;57506;50.092;15.804;2022-09-24T04:10:36;13.67;;;8.30;;
70026;SDS011;57506;50.092;15.804;2022-09-24T04:13:02;16.00;;;9.93;;
70026;SDS011;57506;50.092;15.804;2022-09-24T04:15:27;16.45;;;10.10;;
70026;SDS011;57506;50.092;15.804;2022-09-24T04:17:54;19.65;;;11.60;;
70026;SDS011;57506;50.092;15.804;2022-09-24T04:20:24;18.53;;;11.63;;
70026;SDS011;57506;50.092;15.804;2022-09-24T04:22:52;22.42;;;12.73;;
70026;SDS011;57506;50.092;15.804;2022-09-24T04:25:19;17.42;;;11.45;;
70026;SDS011;57506;50.092;15.804;2022-09-24T04:27:51;18.65;;;11.27;;
70026;SDS011;57506;50.092;15.804;2022-09-24T04:30:20;15.63;;;9.40;;
70026;SDS011;57506;50.092;15.804;2022-09-24T04:32:47;17.43;;;8.90;;
70026;SDS011;57506;50.092;15.804;2022-09-24T04:35:15;15.00;;;8.43;;
70026;SDS011;57506;50.092;15.804;2022-09-24T04:37:44;13.07;;;8.32;;
70026;SDS011;57506;50.092;15.804;2022-09-24T04:40:10;16.77;;;9.98;;
70026;SDS011;57506;50.092;15.804;2022-09-24T04:42:39;17.50;;;9.43;;
70026;SDS011;57506;50.092;15.804;2022-09-24T04:45:06;14.23;;;8.98;;
70026;SDS011;57506;50.092;15.804;2022-09-24T04:47:33;17.73;;;11.05;;
70026;SDS011;57506;50.092;15.804;2022-09-24T04:49:59;18.30;;;11.27;;
70026;SDS011;57506;50.092;15.804;2022-09-24T04:52:26;20.13;;;12.05;;
70026;SDS011;57506;50.092;15.804;2022-09-24T04:54:54;17.23;;;10.07;;
70026;SDS011;57506;50.092;15.804;2022-09-24T04:57:22;18.10;;;10.60;;
70026;SDS011;57506;50.092;15.804;2022-09-24T04:59:48;17.40;;;10.27;;
70026;SDS011;57506;50.092;15.804;2022-09-24T05:02:13;14.88;;;9.48;;
70026;SDS011;57506;50.092;15.804;2022-09-24T05:04:40;16.97;;;9.93;;
70026;SDS011;57506;50.092;15.804;2022-09-24T05:07:06;17.65;;;9.68;;
70026;SDS011;57506;50.092;15.804;2022-09-24T05:09:31;13.53;;;8.93;;
70026;SDS011;57506;50.092;15.804;2022-09-24T05:11:57;16.70;;;9.50;;
70026;SDS011;57506;50.092;15.804;2022-09-24T05:14:23;17.10;;;10.43;;
70026;SDS011;57506;50.092;15.804;2022-09-24T05:16:49;21.55;;;9.82;;
70026;SDS011;57506;50.092;15.804;2022-09-24T05:19:15;17.43;;;10.43;;
70026;SDS011;57506;50.092;15.804;2022-09-24T05:21:40;23.90;;;12.02;;
70026;SDS011;57506;50.092;15.804;2022-09-24T05:24:05;19.57;;;12.57;;
70026;SDS011;57506;50.092;15.804;2022-09-24T05:26:31;22.80;;;14.17;;
70026;SDS011;57506;50.092;15.804;2022-09-24T05:29:15;19.23;;;11.57;;
70026;SDS011;57506;50.092;15.804;2022-09-24T05:31:42;19.55;;;11.30;;
70026;SDS011;57506;50.092;15.804;2022-09-24T05:34:07;18.60;;;11.40;;
70026;SDS011;57506;50.092;15.804;2022-09-24T05:36:33;18.63;;;11.35;;
70026;SDS011;57506;50.092;15.804;2022-09-24T05:38:58;18.40;;;11.47;;
70026;SDS011;57506;50.092;15.804;2022-09-24T05:41:24;19.60;;;11.83;;
70026;SDS011;57506;50.092;15.804;2022-09-24T05:43:49;27.38;;;12.07;;
70026;SDS011;57506;50.092;15.804;2022-09-24T05:46:15;23.33;;;12.93;;
70026;SDS011;57506;50.092;15.804;2022-09-24T05:48:40;19.90;;;12.17;;
70026;SDS011;57506;50.092;15.804;2022-09-24T05:51:06;18.50;;;11.57;;
70026;SDS011;57506;50.092;15.804;2022-09-24T05:53:32;18.77;;;11.88;;
70026;SDS011;57506;50.092;15.804;2022-09-24T05:55:59;18.63;;;11.47;;
70026;SDS011;57506;50.092;15.804;2022-09-24T05:58:24;16.90;;;10.52;;
70026;SDS011;57506;50.092;15.804;2022-09-24T06:00:51;18.00;;;10.35;;
70026;SDS011;57506;50.092;15.804;2022-09-24T06:03:17;16.80;;;10.77;;
70026;SDS011;57506;50.092;15.804;2022-09-24T06:05:44;19.00;;;11.57;;
70026;SDS011;57506;50.092;15.804;2022-09-24T06:08:13;18.58;;;12.20;;
70026;SDS011;57506;50.092;15.804;2022-09-24T06:10:43;20.63;;;13.30;;
70026;SDS011;57506;50.092;15.804;2022-09-24T06:13:10;22.48;;;13.30;;
70026;SDS011;57506;50.092;15.804;2022-09-24T06:15:38;20.98;;;13.75;;
70026;SDS011;57506;50.092;15.804;2022-09-24T06:18:06;20.00;;;13.13;;
70026;SDS011;57506;50.092;15.804;2022-09-24T06:20:33;20.40;;;12.20;;
70026;SDS011;57506;50.092;15.804;2022-09-24T06:22:59;18.60;;;12.23;;
70026;SDS011;57506;50.092;15.804;2022-09-24T06:25:25;16.97;;;10.90;;
70026;SDS011;57506;50.092;15.804;2022-09-24T06:27:58;14.10;;;8.83;;
70026;SDS011;57506;50.092;15.804;2022-09-24T06:30:29;11.30;;;6.75;;
70026;SDS011;57506;50.092;15.804;2022-09-24T06:33:17;9.63;;;5.82;;
70026;SDS011;57506;50.092;15.804;2022-09-24T06:35:44;7.53;;;5.03;;
70026;SDS011;57506;50.092;15.804;2022-09-24T06:38:11;9.82;;;5.38;;
70026;SDS011;57506;50.092;15.804;2022-09-24T06:40:38;10.43;;;4.73;;
70026;SDS011;57506;50.092;15.804;2022-09-24T06:43:05;9.43;;;4.53;;
70026;SDS011;57506;50.092;15.804;2022-09-24T06:45:31;7.20;;;3.97;;
70026;SDS011;57506;50.092;15.804;2022-09-24T06:47:58;9.30;;;4.00;;
70026;SDS011;57506;50.092;15.804;2022-09-24T06:50:27;7.28;;;3.78;;
70026;SDS011;57506;50.092;15.804;2022-09-24T06:52:54;7.90;;;4.13;;
70026;SDS011;57506;50.092;15.804;2022-09-24T06:55:20;7.72;;;3.80;;
70026;SDS011;57506;50.092;15.804;2022-09-24T06:57:46;7.95;;;4.13;;
70026;SDS011;57506;50.092;15.804;2022-09-24T07:00:13;7.13;;;4.03;;
70026;SDS011;57506;50.092;15.804;2022-09-24T07:02:39;9.15;;;4.00;;
70026;SDS011;57506;50.092;15.804;2022-09-24T07:05:06;7.33;;;3.83;;
70026;SDS011;57506;50.092;15.804;2022-09-24T07:07:33;8.70;;;3.85;;
70026;SDS011;57506;50.092;15.804;2022-09-24T07:10:00;9.38;;;4.10;;
70026;SDS011;57506;50.092;15.804;2022-09-24T07:12:27;7.65;;;3.80;;
70026;SDS011;57506;50.092;15.804;2022-09-24T07:14:55;6.47;;;3.58;;
70026;SDS011;57506;50.092;15.804;2022-09-24T07:17:21;10.07;;;4.17;;
70026;SDS011;57506;50.092;15.804;2022-09-24T07:19:47;7.35;;;3.55;;
70026;SDS011;57506;50.092;15.804;2022-09-24T07:22:13;8.63;;;3.65;;
70026;SDS011;57506;50.092;15.804;2022-09-24T07:24:38;7.17;;;3.47;;
70026;SDS011;57506;50.092;15.804;2022-09-24T07:27:04;7.40;;;3.97;;
70026;SDS011;57506;50.092;15.804;2022-09-24T07:29:31;9.57;;;3.88;;
70026;SDS011;57506;50.092;15.804;2022-09-24T07:31:57;9.23;;;3.80;;
70026;SDS011;57506;50.092;15.804;2022-09-24T07:34:23;7.38;;;3.60;;
70026;SDS011;57506;50.092;15.804;2022-09-24T07:36:49;8.03;;;3.83;;
70026;SDS011;57506;50.092;15.804;2022-09-24T07:39:14;11.43;;;3.67;;
70026;SDS011;57506;50.092;15.804;2022-09-24T07:41:40;6.83;;;3.60;;
70026;SDS011;57506;50.092;15.804;2022-09-24T07:44:09;6.70;;;3.55;;
70026;SDS011;57506;50.092;15.804;2022-09-24T07:46:35;7.50;;;3.10;;
70026;SDS011;57506;50.092;15.804;2022-09-24T07:49:01;6.57;;;3.80;;
70026;SDS011;57506;50.092;15.804;2022-09-24T07:51:27;9.15;;;3.65;;
70026;SDS011;57506;50.092;15.804;2022-09-24T07:53:54;7.10;;;3.55;;
70026;SDS011;57506;50.092;15.804;2022-09-24T07:56:21;5.65;;;3.10;;
70026;SDS011;57506;50.092;15.804;2022-09-24T07:58:48;6.70;;;3.50;;
70026;SDS011;57506;50.092;15.804;2022-09-24T08:01:15;9.23;;;3.70;;
70026;SDS011;57506;50.092;15.804;2022-09-24T08:03:44;7.63;;;3.53;;
70026;SDS011;57506;50.092;15.804;2022-09-24T08:06:10;7.05;;;3.38;;
70026;SDS011;57506;50.092;15.804;2022-09-24T08:08:37;6.30;;;3.08;;
70026;SDS011;57506;50.092;15.804;2022-09-24T08:11:07;6.43;;;3.40;;
70026;SDS011;57506;50.092;15.804;2022-09-24T08:13:36;5.85;;;2.95;;
70026;SDS011;57506;50.092;15.804;2022-09-24T08:16:02;6.13;;;2.83;;
70026;SDS011;57506;50.092;15.804;2022-09-24T08:18:29;8.55;;;2.85;;
70026;SDS011;57506;50.092;15.804;2022-09-24T08:20:56;6.82;;;3.10;;
70026;SDS011;57506;50.092;15.804;2022-09-24T08:23:24;7.93;;;2.97;;
70026;SDS011;57506;50.092;15.804;2022-09-24T08:25:49;5.72;;;3.03;;
70026;SDS011;57506;50.092;15.804;2022-09-24T08:28:19;5.43;;;2.90;;
70026;SDS011;57506;50.092;15.804;2022-09-24T08:30:45;6.03;;;3.07;;
70026;SDS011;57506;50.092;15.804;2022-09-24T08:33:11;7.50;;;3.20;;
70026;SDS011;57506;50.092;15.804;2022-09-24T08:35:37;5.43;;;2.90;;
70026;SDS011;57506;50.092;15.804;2022-09-24T08:38:06;6.80;;;3.10;;
70026;SDS011;57506;50.092;15.804;2022-09-24T08:40:43;5.40;;;2.90;;
70026;SDS011;57506;50.092;15.804;2022-09-24T08:43:36;5.53;;;2.70;;
70026;SDS011;57506;50.092;15.804;2022-09-24T08:46:26;5.68;;;2.70;;
70026;SDS011;57506;50.092;15.804;2022-09-24T08:49:16;6.50;;;3.20;;
70026;SDS011;57506;50.092;15.804;2022-09-24T08:51:55;8.73;;;2.90;;
70026;SDS011;57506;50.092;15.804;2022-09-24T08:54:36;7.03;;;2.70;;
70026;SDS011;57506;50.092;15.804;2022-09-24T08:57:04;6.15;;;2.55;;
70026;SDS011;57506;50.092;15.804;2022-09-24T08:59:40;5.53;;;2.60;;
70026;SDS011;57506;50.092;15.804;2022-09-24T09:07:44;6.03;;;2.40;;
70026;SDS011;57506;50.092;15.804;2022-09-24T09:10:21;5.47;;;2.60;;
70026;SDS011;57506;50.092;15.804;2022-09-24T09:12:57;5.32;;;2.95;;
70026;SDS011;57506;50.092;15.804;2022-09-24T09:15:30;5.82;;;2.65;;
70026;SDS011;57506;50.092;15.804;2022-09-24T09:20:37;6.55;;;2.75;;
70026;SDS011;57506;50.092;15.804;2022-09-24T09:23:11;4.72;;;2.30;;
70026;SDS011;57506;50.092;15.804;2022-09-24T09:25:55;5.40;;;2.70;;
70026;SDS011;57506;50.092;15.804;2022-09-24T09:28:27;5.65;;;3.15;;
70026;SDS011;57506;50.092;15.804;2022-09-24T09:36:28;7.18;;;2.92;;
70026;SDS011;57506;50.092;15.804;2022-09-24T09:42:00;5.88;;;2.90;;
70026;SDS011;57506;50.092;15.804;2022-09-24T09:44:40;5.75;;;2.78;;
70026;SDS011;57506;50.092;15.804;2022-09-24T09:49:33;5.80;;;2.77;;
70026;SDS011;57506;50.092;15.804;2022-09-24T09:52:03;5.07;;;2.92;;
70026;SDS011;57506;50.092;15.804;2022-09-24T09:54:37;7.05;;;2.75;;
70026;SDS011;57506;50.092;15.804;2022-09-24T09:57:05;6.73;;;2.67;;
70026;SDS011;57506;50.092;15.804;2022-09-24T09:59:31;5.60;;;2.97;;
70026;SDS011;57506;50.092;15.804;2022-09-24T10:02:00;5.75;;;2.60;;
70026;SDS011;57506;50.092;15.804;2022-09-24T10:07:04;8.13;;;3.20;;
70026;SDS011;57506;50.092;15.804;2022-09-24T10:09:32;5.23;;;2.70;;
70026;SDS011;57506;50.092;15.804;2022-09-24T10:14:42;4.95;;;2.80;;
70026;SDS011;57506;50.092;15.804;2022-09-24T10:17:11;5.68;;;2.92;;
70026;SDS011;57506;50.092;15.804;2022-09-24T10:19:40;6.93;;;3.10;;
70026;SDS011;57506;50.092;15.804;2022-09-24T10:22:25;5.70;;;3.07;;
70026;SDS011;57506;50.092;15.804;2022-09-24T10:24:53;6.53;;;2.55;;
70026;SDS011;57506;50.092;15.804;2022-09-24T10:27:26;4.93;;;2.97;;
70026;SDS011;57506;50.092;15.804;2022-09-24T10:29:59;5.63;;;2.90;;
70026;SDS011;57506;50.092;15.804;2022-09-24T10:32:45;6.25;;;3.25;;
70026;SDS011;57506;50.092;15.804;2022-09-24T10:35:20;5.87;;;3.00;;
70026;SDS011;57506;50.092;15.804;2022-09-24T10:37:55;5.45;;;3.15;;
70026;SDS011;57506;50.092;15.804;2022-09-24T10:40:27;6.68;;;3.00;;
70026;SDS011;57506;50.092;15.804;2022-09-24T10:43:03;5.32;;;2.47;;
70026;SDS011;57506;50.092;15.804;2022-09-24T10:45:34;5.47;;;3.10;;
70026;SDS011;57506;50.092;15.804;2022-09-24T10:48:23;5.73;;;2.93;;
70026;SDS011;57506;50.092;15.804;2022-09-24T10:56:20;5.80;;;3.13;;
70026;SDS011;57506;50.092;15.804;2022-09-24T11:07:06;6.47;;;2.63;;
70026;SDS011;57506;50.092;15.804;2022-09-24T11:15:24;7.22;;;2.50;;
70026;SDS011;57506;50.092;15.804;2022-09-24T11:18:21;4.78;;;2.17;;
70026;SDS011;57506;50.092;15.804;2022-09-24T11:24:11;4.57;;;2.03;;
70026;SDS011;57506;50.092;15.804;2022-09-24T11:27:07;7.65;;;2.22;;
70026;SDS011;57506;50.092;15.804;2022-09-24T11:29:53;6.30;;;2.40;;
70026;SDS011;57506;50.092;15.804;2022-09-24T11:38:02;4.47;;;2.40;;
70026;SDS011;57506;50.092;15.804;2022-09-24T11:51:17;5.17;;;2.60;;
70026;SDS011;57506;50.092;15.804;2022-09-24T11:56:43;5.28;;;2.55;;
70026;SDS011;57506;50.092;15.804;2022-09-24T11:59:20;6.18;;;2.25;;
70026;SDS011;57506;50.092;15.804;2022-09-24T12:01:57;5.95;;;2.60;;
70026;SDS011;57506;50.092;15.804;2022-09-24T12:04:47;8.07;;;2.40;;
70026;SDS011;57506;50.092;15.804;2022-09-24T12:07:15;10.27;;;2.40;;
70026;SDS011;57506;50.092;15.804;2022-09-24T12:17:45;3.80;;;1.80;;
70026;SDS011;57506;50.092;15.804;2022-09-24T12:20:45;4.30;;;1.70;;
70026;SDS011;57506;50.092;15.804;2022-09-24T12:23:28;4.38;;;2.00;;
70026;SDS011;57506;50.092;15.804;2022-09-24T12:25:57;5.15;;;1.50;;
70026;SDS011;57506;50.092;15.804;2022-09-24T12:28:25;5.60;;;2.40;;
70026;SDS011;57506;50.092;15.804;2022-09-24T12:31:27;4.57;;;1.87;;
70026;SDS011;57506;50.092;15.804;2022-09-24T12:37:15;4.30;;;1.90;;
70026;SDS011;57506;50.092;15.804;2022-09-24T12:39:53;4.68;;;1.77;;
70026;SDS011;57506;50.092;15.804;2022-09-24T12:42:30;5.05;;;1.48;;
70026;SDS011;57506;50.092;15.804;2022-09-24T12:45:01;4.77;;;1.70;;
70026;SDS011;57506;50.092;15.804;2022-09-24T12:47:29;3.95;;;1.80;;
70026;SDS011;57506;50.092;15.804;2022-09-24T12:49:59;3.65;;;1.67;;
70026;SDS011;57506;50.092;15.804;2022-09-24T12:52:39;3.85;;;1.35;;
70026;SDS011;57506;50.092;15.804;2022-09-24T13:02:57;3.67;;;1.70;;
70026;SDS011;57506;50.092;15.804;2022-09-24T13:07:59;5.30;;;2.00;;
70026;SDS011;57506;50.092;15.804;2022-09-24T13:10:59;4.80;;;1.73;;
70026;SDS011;57506;50.092;15.804;2022-09-24T13:13:30;4.93;;;2.00;;
70026;SDS011;57506;50.092;15.804;2022-09-24T13:16:03;3.45;;;1.70;;
70026;SDS011;57506;50.092;15.804;2022-09-24T13:18:33;4.38;;;1.70;;
70026;SDS011;57506;50.092;15.804;2022-09-24T13:21:05;3.70;;;1.40;;
70026;SDS011;57506;50.092;15.804;2022-09-24T13:26:05;3.75;;;1.48;;
70026;SDS011;57506;50.092;15.804;2022-09-24T13:33:49;4.25;;;1.77;;
70026;SDS011;57506;50.092;15.804;2022-09-24T13:44:39;6.50;;;2.10;;
70026;SDS011;57506;50.092;15.804;2022-09-24T13:47:29;4.75;;;1.70;;
70026;SDS011;57506;50.092;15.804;2022-09-24T13:50:02;4.73;;;1.60;;
70026;SDS011;57506;50.092;15.804;2022-09-24T13:55:19;4.90;;;1.85;;
70026;SDS011;57506;50.092;15.804;2022-09-24T13:57:48;6.25;;;1.80;;
70026;SDS011;57506;50.092;15.804;2022-09-24T14:02:42;5.03;;;1.92;;
70026;SDS011;57506;50.092;15.804;2022-09-24T14:05:16;4.25;;;2.03;;
70026;SDS011;57506;50.092;15.804;2022-09-24T14:07:57;4.47;;;1.90;;
70026;SDS011;57506;50.092;15.804;2022-09-24T14:10:28;5.03;;;1.93;;
70026;SDS011;57506;50.092;15.804;2022-09-24T14:13:04;4.68;;;2.03;;
70026;SDS011;57506;50.092;15.804;2022-09-24T14:15:34;4.85;;;1.75;;
70026;SDS011;57506;50.092;15.804;2022-09-24T14:18:00;4.68;;;2.17;;
70026;SDS011;57506;50.092;15.804;2022-09-24T14:20:27;5.10;;;1.67;;
70026;SDS011;57506;50.092;15.804;2022-09-24T14:22:55;3.80;;;1.63;;
70026;SDS011;57506;50.092;15.804;2022-09-24T14:25:27;3.80;;;1.67;;
70026;SDS011;57506;50.092;15.804;2022-09-24T14:27:57;4.60;;;2.13;;
70026;SDS011;57506;50.092;15.804;2022-09-24T14:30:25;4.57;;;2.17;;
70026;SDS011;57506;50.092;15.804;2022-09-24T14:33:04;5.03;;;2.35;;
70026;SDS011;57506;50.092;15.804;2022-09-24T14:35:36;4.47;;;2.17;;
70026;SDS011;57506;50.092;15.804;2022-09-24T14:38:10;5.05;;;2.40;;
70026;SDS011;57506;50.092;15.804;2022-09-24T14:40:41;5.18;;;2.75;;
70026;SDS011;57506;50.092;15.804;2022-09-24T14:43:13;5.23;;;2.13;;
70026;SDS011;57506;50.092;15.804;2022-09-24T14:45:42;6.05;;;2.47;;
70026;SDS011;57506;50.092;15.804;2022-09-24T14:50:56;4.63;;;2.33;;
70026;SDS011;57506;50.092;15.804;2022-09-24T14:53:34;6.07;;;2.43;;
70026;SDS011;57506;50.092;15.804;2022-09-24T14:56:18;4.72;;;2.17;;
70026;SDS011;57506;50.092;15.804;2022-09-24T14:58:44;5.57;;;2.50;;
70026;SDS011;57506;50.092;15.804;2022-09-24T15:01:13;6.63;;;2.30;;
70026;SDS011;57506;50.092;15.804;2022-09-24T15:06:25;4.70;;;2.20;;
70026;SDS011;57506;50.092;15.804;2022-09-24T15:11:33;6.60;;;2.80;;
70026;SDS011;57506;50.092;15.804;2022-09-24T15:16:33;4.95;;;2.38;;
70026;SDS011;57506;50.092;15.804;2022-09-24T15:21:48;5.47;;;2.33;;
70026;SDS011;57506;50.092;15.804;2022-09-24T15:24:16;7.33;;;2.40;;
70026;SDS011;57506;50.092;15.804;2022-09-24T15:26:48;6.63;;;2.50;;
70026;SDS011;57506;50.092;15.804;2022-09-24T15:29:25;6.53;;;2.53;;
70026;SDS011;57506;50.092;15.804;2022-09-24T15:31:51;5.30;;;2.30;;
70026;SDS011;57506;50.092;15.804;2022-09-24T15:34:18;7.65;;;2.08;;
70026;SDS011;57506;50.092;15.804;2022-09-24T15:36:44;5.10;;;2.40;;
70026;SDS011;57506;50.092;15.804;2022-09-24T15:39:14;4.70;;;2.47;;
70026;SDS011;57506;50.092;15.804;2022-09-24T15:41:41;5.60;;;2.30;;
70026;SDS011;57506;50.092;15.804;2022-09-24T15:44:07;4.67;;;2.27;;
70026;SDS011;57506;50.092;15.804;2022-09-24T15:46:40;5.88;;;2.50;;
70026;SDS011;57506;50.092;15.804;2022-09-24T15:49:06;5.07;;;2.45;;
70026;SDS011;57506;50.092;15.804;2022-09-24T15:51:32;5.10;;;2.90;;
70026;SDS011;57506;50.092;15.804;2022-09-24T15:53:58;10.40;;;2.57;;
70026;SDS011;57506;50.092;15.804;2022-09-24T15:56:23;6.23;;;2.20;;
70026;SDS011;57506;50.092;15.804;2022-09-24T15:58:49;4.43;;;2.53;;
70026;SDS011;57506;50.092;15.804;2022-09-24T16:01:15;6.85;;;2.90;;
70026;SDS011;57506;50.092;15.804;2022-09-24T16:03:44;4.80;;;2.50;;
70026;SDS011;57506;50.092;15.804;2022-09-24T16:06:10;4.83;;;2.50;;
70026;SDS011;57506;50.092;15.804;2022-09-24T16:08:36;4.95;;;2.90;;
70026;SDS011;57506;50.092;15.804;2022-09-24T16:11:01;4.60;;;2.38;;
70026;SDS011;57506;50.092;15.804;2022-09-24T16:13:30;4.28;;;2.30;;
70026;SDS011;57506;50.092;15.804;2022-09-24T16:15:56;5.13;;;2.57;;
70026;SDS011;57506;50.092;15.804;2022-09-24T16:18:21;6.57;;;2.63;;
70026;SDS011;57506;50.092;15.804;2022-09-24T16:20:50;4.30;;;2.30;;
70026;SDS011;57506;50.092;15.804;2022-09-24T16:23:16;5.70;;;2.30;;
70026;SDS011;57506;50.092;15.804;2022-09-24T16:25:55;7.07;;;2.90;;
70026;SDS011;57506;50.092;15.804;2022-09-24T16:28:22;4.53;;;2.40;;
70026;SDS011;57506;50.092;15.804;2022-09-24T16:30:48;6.32;;;2.60;;
70026;SDS011;57506;50.092;15.804;2022-09-24T16:33:14;7.03;;;2.80;;
70026;SDS011;57506;50.092;15.804;2022-09-24T16:35:39;5.85;;;2.45;;
70026;SDS011;57506;50.092;15.804;2022-09-24T16:38:05;6.33;;;2.37;;
70026;SDS011;57506;50.092;15.804;2022-09-24T16:40:31;7.00;;;2.50;;
70026;SDS011;57506;50.092;15.804;2022-09-24T16:42:56;6.45;;;2.88;;
70026;SDS011;57506;50.092;15.804;2022-09-24T16:45:23;7.28;;;3.33;;
70026;SDS011;57506;50.092;15.804;2022-09-24T16:47:48;8.17;;;2.60;;
70026;SDS011;57506;50.092;15.804;2022-09-24T16:50:14;10.48;;;3.72;;
70026;SDS011;57506;50.092;15.804;2022-09-24T16:52:40;5.13;;;2.80;;
70026;SDS011;57506;50.092;15.804;2022-09-24T16:55:08;6.03;;;3.00;;
70026;SDS011;57506;50.092;15.804;2022-09-24T16:57:35;9.68;;;3.70;;
70026;SDS011;57506;50.092;15.804;2022-09-24T17:00:05;6.13;;;2.90;;
70026;SDS011;57506;50.092;15.804;2022-09-24T17:02:33;6.90;;;2.80;;
70026;SDS011;57506;50.092;15.804;2022-09-24T17:04:59;6.30;;;3.20;;